Time;durP1;ratioP1;P1;durP2;ratioP2;P2;SDS_P1;SDS_P2;PMS_P1;PMS_P2;Temp;Humidity;BMP_temperature;BMP_pressure;BME280_temperature;BME280_humidity;BME280_pressure;Samples;Min_cycle;Max_cycle;Signal;HPM_P1;HPM_P2
2021/12/02 00:00:15;;;;;;;21.35;3.20;;;;;;;3.88;100.00;99480.28;5024720;28;20033;-67
2021/12/02 00:02:41;;;;;;;22.40;4.28;;;;;;;3.98;100.00;99462.94;5025388;28;20214;-66
2021/12/02 00:05:10;;;;;;;17.55;3.10;;;;;;;4.06;100.00;99467.88;5023077;28;20033;-66
2021/12/02 00:07:35;;;;;;;28.70;4.05;;;;;;;4.23;100.00;99474.03;5024108;28;20032;-66
2021/12/02 00:10:04;;;;;;;34.80;3.75;;;;;;;4.29;100.00;99464.34;5024607;28;20507;-72
2021/12/02 00:12:31;;;;;;;31.67;3.97;;;;;;;4.34;100.00;99465.25;5024420;28;20032;-71
2021/12/02 00:15:00;;;;;;;24.10;3.53;;;;;;;4.43;100.00;99477.09;5024977;28;20059;-71
2021/12/02 00:17:34;;;;;;;23.98;3.65;;;;;;;4.36;100.00;99475.63;5027855;28;20217;-71
2021/12/02 00:23:13;;;;;;;22.83;4.18;;;;;;;4.21;100.00;99482.25;5024486;28;20040;-72
2021/12/02 00:25:39;;;;;;;25.65;5.65;;;;;;;4.09;100.00;99484.16;5012358;28;20033;-72
2021/12/02 00:28:09;;;;;;;27.55;5.72;;;;;;;4.02;100.00;99480.81;5036793;28;20297;-72
2021/12/02 00:30:42;;;;;;;21.40;5.63;;;;;;;3.91;100.00;99476.38;5028508;28;20048;-72
2021/12/02 00:33:08;;;;;;;25.00;5.70;;;;;;;3.79;100.00;99472.91;5023482;28;20130;-72
2021/12/02 00:35:34;;;;;;;24.42;3.70;;;;;;;3.67;100.00;99464.19;5012592;28;21937;-72
2021/12/02 00:38:02;;;;;;;34.33;5.10;;;;;;;3.78;100.00;99466.00;5023379;28;20060;-73
2021/12/02 00:40:28;;;;;;;25.45;3.65;;;;;;;4.01;100.00;99463.28;5024829;28;20318;-72
2021/12/02 00:42:54;;;;;;;23.40;3.45;;;;;;;4.38;100.00;99463.72;5023042;28;20194;-73
2021/12/02 00:45:22;;;;;;;23.80;2.95;;;;;;;4.69;100.00;99470.38;5028783;28;20103;-73
2021/12/02 00:47:50;;;;;;;21.00;2.88;;;;;;;4.85;100.00;99460.00;5023465;28;20037;-73
2021/12/02 00:50:16;;;;;;;23.85;3.45;;;;;;;4.94;100.00;99479.81;5024461;28;20101;-73
2021/12/02 00:52:41;;;;;;;29.45;4.30;;;;;;;5.06;100.00;99485.88;5024849;28;20070;-72
2021/12/02 00:55:08;;;;;;;24.20;3.65;;;;;;;4.91;100.00;99478.44;5028979;28;20223;-72
2021/12/02 00:57:41;;;;;;;25.13;3.40;;;;;;;4.79;100.00;99481.16;5027501;28;20043;-73
2021/12/02 01:00:08;;;;;;;19.33;3.20;;;;;;;4.37;100.00;99462.09;5024402;28;20120;-72
2021/12/02 01:02:34;;;;;;;27.42;3.95;;;;;;;4.43;100.00;99474.44;5023818;28;20041;-74
2021/12/02 01:05:00;;;;;;;27.23;3.92;;;;;;;4.39;100.00;99477.78;5028021;28;20504;-74
2021/12/02 01:07:29;;;;;;;17.13;3.85;;;;;;;4.39;100.00;99478.59;5023828;28;20079;-73
2021/12/02 01:09:57;;;;;;;21.23;3.38;;;;;;;4.36;100.00;99486.25;5024279;28;20041;-73
2021/12/02 01:12:23;;;;;;;16.20;3.45;;;;;;;4.25;100.00;99489.75;5027885;28;20112;-72
2021/12/02 01:14:49;;;;;;;21.48;3.40;;;;;;;4.08;100.00;99493.16;5023414;28;20040;-73
2021/12/02 01:17:14;;;;;;;15.20;2.67;;;;;;;4.05;100.00;99490.16;5023876;28;20146;-72
2021/12/02 01:19:40;;;;;;;24.20;3.13;;;;;;;4.01;100.00;99500.44;5026608;28;20040;-72
2021/12/02 01:22:06;;;;;;;19.50;3.25;;;;;;;3.99;100.00;99513.16;5023807;28;20314;-73
2021/12/02 01:24:31;;;;;;;14.25;2.28;;;;;;;3.93;100.00;99488.34;5022809;28;20053;-73
2021/12/02 01:26:58;;;;;;;22.15;2.00;;;;;;;3.91;100.00;99510.88;5027712;28;20040;-73
2021/12/02 01:29:25;;;;;;;16.23;2.63;;;;;;;3.94;100.00;99505.06;5027519;28;20053;-73
2021/12/02 01:31:56;;;;;;;13.10;2.17;;;;;;;3.82;100.00;99501.63;5011382;28;22252;-73
2021/12/02 01:34:25;;;;;;;20.70;3.08;;;;;;;3.82;100.00;99504.28;5022245;28;20072;-73
2021/12/02 01:36:52;;;;;;;17.35;2.63;;;;;;;3.93;100.00;99508.78;5026628;28;20036;-73
2021/12/02 01:39:18;;;;;;;14.45;2.50;;;;;;;3.88;100.00;99506.00;5022516;28;20025;-73
2021/12/02 01:41:56;;;;;;;11.38;2.10;;;;;;;3.90;100.00;99503.91;5021744;28;20033;-73
2021/12/02 01:44:23;;;;;;;21.50;2.90;;;;;;;3.92;100.00;99505.31;5011462;28;20522;-73
2021/12/02 01:46:53;;;;;;;15.02;2.05;;;;;;;4.05;100.00;99522.00;5017627;28;20476;-72
2021/12/02 01:49:21;;;;;;;9.93;2.42;;;;;;;3.88;100.00;99528.03;5010746;28;20040;-72
2021/12/02 01:51:49;;;;;;;21.90;3.30;;;;;;;3.80;100.00;99520.44;5022199;28;20565;-73
2021/12/02 01:54:20;;;;;;;26.50;3.08;;;;;;;4.01;100.00;99510.25;5004791;28;20037;-72
2021/12/02 01:57:07;;;;;;;23.10;3.10;;;;;;;3.88;100.00;99511.31;5017460;28;20036;-73
2021/12/02 01:59:38;;;;;;;17.98;2.03;;;;;;;3.90;100.00;99501.25;5026097;28;20040;-73
2021/12/02 02:02:07;;;;;;;14.02;2.33;;;;;;;3.96;100.00;99513.59;5037630;28;20037;-72
2021/12/02 02:04:33;;;;;;;22.92;3.60;;;;;;;4.01;100.00;99505.75;5022396;28;20103;-71
2021/12/02 02:07:05;;;;;;;31.48;4.20;;;;;;;4.06;100.00;99505.84;5019481;28;20029;-72
2021/12/02 02:09:32;;;;;;;20.02;3.50;;;;;;;4.25;100.00;99508.34;5020947;28;20093;-73
2021/12/02 02:12:02;;;;;;;26.52;2.85;;;;;;;4.29;100.00;99504.16;5022764;28;20492;-72
2021/12/02 02:14:28;;;;;;;22.60;3.30;;;;;;;4.50;100.00;99492.88;5021899;28;20029;-73
2021/12/02 02:16:55;;;;;;;26.35;3.50;;;;;;;4.61;100.00;99497.31;5038631;28;20083;-73
2021/12/02 02:19:21;;;;;;;29.73;3.83;;;;;;;4.73;100.00;99522.00;5009897;28;20044;-73
2021/12/02 02:21:47;;;;;;;25.67;4.35;;;;;;;4.24;100.00;99526.13;5023276;28;20094;-73
2021/12/02 02:24:17;;;;;;;14.02;2.03;;;;;;;3.89;100.00;99534.16;5022232;28;20037;-72
2021/12/02 02:26:43;;;;;;;21.27;4.82;;;;;;;3.68;100.00;99532.91;5022804;28;20107;-71
2021/12/02 02:29:12;;;;;;;13.35;2.35;;;;;;;3.56;100.00;99517.00;5026095;28;20063;-73
2021/12/02 02:31:41;;;;;;;27.83;3.63;;;;;;;3.52;100.00;99523.81;5021717;28;20044;-73
2021/12/02 02:34:07;;;;;;;22.27;2.60;;;;;;;3.38;100.00;99517.13;5022607;28;20037;-74
2021/12/02 02:36:36;;;;;;;12.73;1.70;;;;;;;3.14;100.00;99499.59;5025039;28;20039;-73
2021/12/02 02:39:04;;;;;;;13.48;2.00;;;;;;;3.00;100.00;99504.28;5025555;28;20036;-73
2021/12/02 02:41:38;;;;;;;18.63;3.05;;;;;;;2.88;100.00;99506.94;5021944;28;20540;-74
2021/12/02 02:44:07;;;;;;;9.85;1.60;;;;;;;2.94;100.00;99505.22;5026381;28;20112;-75
2021/12/02 02:46:37;;;;;;;21.77;2.97;;;;;;;3.00;100.00;99510.38;5026403;28;20744;-74
2021/12/02 02:49:08;;;;;;;23.60;3.40;;;;;;;3.18;100.00;99528.06;5020960;28;20037;-74
2021/12/02 02:51:37;;;;;;;19.48;2.85;;;;;;;3.32;100.00;99534.75;5023044;28;20037;-74
2021/12/02 02:54:05;;;;;;;13.63;2.08;;;;;;;3.32;100.00;99528.63;5004197;28;20170;-72
2021/12/02 02:56:32;;;;;;;26.55;3.78;;;;;;;3.25;100.00;99506.72;5026358;28;20036;-72
2021/12/02 02:59:13;;;;;;;31.58;3.88;;;;;;;3.44;100.00;99495.00;5025659;28;20063;-72
2021/12/02 03:17:13;;;;;;;18.23;2.35;;;;;;;3.31;100.00;99513.78;5037161;28;20037;-71
2021/12/02 03:19:46;;;;;;;17.88;2.25;;;;;;;3.33;100.00;99520.44;5029315;28;20041;-72
2021/12/02 03:22:15;;;;;;;22.58;3.42;;;;;;;3.45;100.00;99515.16;5024127;28;20189;-74
2021/12/02 03:24:46;;;;;;;25.45;3.15;;;;;;;3.49;100.00;99518.16;5040644;28;20036;-73
2021/12/02 03:27:11;;;;;;;18.15;2.75;;;;;;;3.44;100.00;99496.84;5026064;28;20037;-73
2021/12/02 03:29:40;;;;;;;17.45;3.25;;;;;;;3.51;100.00;99516.09;5025847;28;20598;-72
2021/12/02 03:32:07;;;;;;;23.27;3.53;;;;;;;3.72;100.00;99522.63;5024738;28;20075;-73
2021/12/02 03:34:33;;;;;;;22.80;3.33;;;;;;;3.78;100.00;99517.22;5004130;28;20097;-73
2021/12/02 03:36:58;;;;;;;21.75;2.80;;;;;;;3.89;100.00;99513.72;5017764;28;20083;-73
2021/12/02 03:39:25;;;;;;;22.60;2.95;;;;;;;3.84;100.00;99528.75;5025261;28;20439;-74
2021/12/02 03:41:52;;;;;;;22.83;3.15;;;;;;;3.72;100.00;99533.25;5013516;28;20044;-74
2021/12/02 03:44:22;;;;;;;16.25;2.13;;;;;;;3.57;100.00;99531.88;5039448;28;20039;-73
2021/12/02 03:46:48;;;;;;;23.25;3.78;;;;;;;3.55;100.00;99539.25;5040509;28;20531;-73
2021/12/02 03:49:16;;;;;;;21.67;2.60;;;;;;;3.60;100.00;99543.88;5023973;28;20071;-73
2021/12/02 03:51:42;;;;;;;18.33;2.72;;;;;;;3.53;100.00;99540.53;5025281;28;20073;-73
2021/12/02 03:54:08;;;;;;;16.88;2.28;;;;;;;3.50;100.00;99533.00;5025722;28;20132;-74
2021/12/02 03:56:34;;;;;;;9.25;2.10;;;;;;;3.44;100.00;99537.41;5023840;28;20033;-73
2021/12/02 03:59:02;;;;;;;17.38;2.65;;;;;;;3.37;100.00;99511.00;5024510;28;20075;-73
2021/12/02 04:01:27;;;;;;;20.92;2.65;;;;;;;3.45;100.00;99517.81;5012910;28;20095;-72
2021/12/02 04:03:53;;;;;;;20.00;2.80;;;;;;;3.54;100.00;99529.69;5023025;28;20028;-74
2021/12/02 04:06:21;;;;;;;37.70;4.15;;;;;;;3.61;100.00;99527.72;5038665;28;20488;-73
2021/12/02 04:08:57;;;;;;;18.45;2.35;;;;;;;3.52;100.00;99518.50;5041054;28;20029;-72
2021/12/02 04:14:04;;;;;;;10.55;1.95;;;;;;;3.56;100.00;99540.84;5024625;28;20432;-74
2021/12/02 04:16:35;;;;;;;29.77;4.43;;;;;;;3.60;100.00;99533.28;5040504;28;20511;-73
2021/12/02 04:19:03;;;;;;;20.27;2.78;;;;;;;3.51;100.00;99537.31;5038887;28;20314;-73
2021/12/02 04:21:29;;;;;;;21.50;3.45;;;;;;;3.56;100.00;99535.56;5039150;28;20029;-73
2021/12/02 04:23:55;;;;;;;22.70;3.28;;;;;;;3.62;100.00;99542.59;5023217;28;20198;-73
2021/12/02 04:26:20;;;;;;;22.95;2.97;;;;;;;3.63;100.00;99532.78;5024687;28;20029;-73
2021/12/02 04:28:48;;;;;;;21.25;3.60;;;;;;;3.41;100.00;99532.56;5024171;28;20460;-74
2021/12/02 04:31:14;;;;;;;25.33;2.97;;;;;;;3.20;100.00;99525.19;5028191;28;20148;-74
2021/12/02 04:33:39;;;;;;;18.05;2.58;;;;;;;3.05;100.00;99539.66;5022870;28;20148;-74
2021/12/02 04:36:06;;;;;;;20.77;3.05;;;;;;;2.99;100.00;99567.06;5028722;28;20411;-73
2021/12/02 04:38:34;;;;;;;16.10;2.40;;;;;;;2.84;100.00;99564.03;5024599;28;20087;-71
2021/12/02 04:41:02;;;;;;;28.58;3.13;;;;;;;2.65;100.00;99551.88;5022867;28;20037;-72
2021/12/02 04:43:27;;;;;;;17.30;2.70;;;;;;;2.70;100.00;99558.13;5021452;28;20086;-72
2021/12/02 04:45:55;;;;;;;19.35;2.60;;;;;;;2.62;100.00;99557.63;4999797;28;21849;-71
2021/12/02 04:48:21;;;;;;;28.67;3.47;;;;;;;2.46;100.00;99554.56;5006623;28;20635;-72
2021/12/02 04:50:49;;;;;;;19.58;2.20;;;;;;;2.33;100.00;99552.09;5023410;28;20109;-72
2021/12/02 04:53:15;;;;;;;21.13;2.58;;;;;;;2.30;100.00;99544.59;5024549;28;20484;-72
2021/12/02 04:55:41;;;;;;;18.52;2.72;;;;;;;2.60;100.00;99541.94;5027720;28;20056;-72
2021/12/02 04:58:06;;;;;;;24.45;2.60;;;;;;;2.63;100.00;99546.00;5038465;28;20043;-72
2021/12/02 05:00:34;;;;;;;23.42;3.45;;;;;;;2.69;100.00;99542.47;4996683;28;20095;-72
2021/12/02 05:03:00;;;;;;;36.00;4.25;;;;;;;2.79;100.00;99540.88;5011221;28;20036;-72
2021/12/02 05:05:25;;;;;;;25.80;3.55;;;;;;;2.89;100.00;99548.28;5021643;28;20535;-72
2021/12/02 05:07:54;;;;;;;28.08;4.43;;;;;;;3.10;100.00;99552.25;5027094;28;22041;-73
2021/12/02 05:10:23;;;;;;;22.23;3.88;;;;;;;3.13;100.00;99549.13;5023390;28;21901;-73
2021/12/02 05:12:49;;;;;;;18.92;2.75;;;;;;;2.95;100.00;99552.66;5004985;28;20647;-73
2021/12/02 05:15:17;;;;;;;25.77;4.57;;;;;;;3.08;100.00;99549.00;5022993;28;20203;-73
2021/12/02 05:17:45;;;;;;;35.97;3.97;;;;;;;3.09;100.00;99554.09;5023845;28;20044;-73
2021/12/02 05:20:10;;;;;;;39.17;4.32;;;;;;;3.28;100.00;99540.75;5002102;28;20033;-72
2021/12/02 05:22:38;;;;;;;24.30;3.55;;;;;;;3.40;100.00;99552.16;5027272;28;20062;-71
2021/12/02 05:25:04;;;;;;;19.35;3.88;;;;;;;3.40;100.00;99536.25;5021576;28;20348;-72
2021/12/02 05:27:33;;;;;;;26.20;2.78;;;;;;;3.34;100.00;99542.50;5027998;28;20544;-72
2021/12/02 05:30:00;;;;;;;28.80;3.33;;;;;;;3.30;100.00;99533.38;5022087;28;20053;-72
2021/12/02 05:32:30;;;;;;;36.90;3.70;;;;;;;3.38;100.00;99544.44;5011663;28;20445;-72
2021/12/02 05:34:55;;;;;;;24.83;3.33;;;;;;;3.25;100.00;99565.03;5026224;28;20040;-72
2021/12/02 05:37:21;;;;;;;37.20;3.25;;;;;;;2.96;100.00;99548.19;5022972;28;20090;-72
2021/12/02 05:39:46;;;;;;;19.88;3.13;;;;;;;2.91;100.00;99554.16;5022784;28;20556;-72
2021/12/02 05:42:12;;;;;;;22.92;2.78;;;;;;;2.99;100.00;99566.25;5025420;28;20029;-73
2021/12/02 05:44:37;;;;;;;16.08;2.78;;;;;;;2.98;100.00;99585.84;5023297;28;20182;-71
2021/12/02 05:47:06;;;;;;;21.35;3.00;;;;;;;2.91;100.00;99571.88;5022709;28;20148;-71
2021/12/02 05:49:34;;;;;;;10.80;1.60;;;;;;;2.97;100.00;99576.28;5022207;28;20029;-70
2021/12/02 05:51:59;;;;;;;27.15;3.90;;;;;;;3.05;100.00;99571.47;5022996;28;20041;-71
2021/12/02 05:54:25;;;;;;;12.40;2.20;;;;;;;2.99;100.00;99567.06;5022706;28;20056;-71
2021/12/02 05:56:50;;;;;;;15.43;2.00;;;;;;;3.19;100.00;99560.69;5022346;28;20154;-71
2021/12/02 05:59:16;;;;;;;23.23;3.42;;;;;;;3.32;100.00;99574.50;5021668;28;20037;-71
2021/12/02 06:01:42;;;;;;;16.13;2.20;;;;;;;3.29;100.00;99561.72;5021987;28;20566;-70
2021/12/02 06:04:09;;;;;;;28.38;3.88;;;;;;;3.37;100.00;99547.31;5022155;28;20491;-72
2021/12/02 06:06:35;;;;;;;25.55;3.90;;;;;;;3.51;100.00;99559.31;5022981;28;20040;-73
2021/12/02 06:09:00;;;;;;;29.17;3.80;;;;;;;3.28;100.00;99570.72;5022566;28;20381;-72
2021/12/02 06:11:26;;;;;;;25.35;4.03;;;;;;;2.97;100.00;99587.69;5021859;28;20136;-70
2021/12/02 06:13:52;;;;;;;21.27;3.03;;;;;;;2.70;100.00;99557.31;5010472;28;20124;-72
2021/12/02 06:16:17;;;;;;;24.17;2.95;;;;;;;2.88;100.00;99589.03;5021675;28;20033;-72
2021/12/02 06:18:43;;;;;;;18.17;3.33;;;;;;;2.93;100.00;99599.78;5022565;28;20064;-70
2021/12/02 06:21:11;;;;;;;23.92;3.17;;;;;;;2.92;100.00;99603.44;5026227;28;20113;-72
2021/12/02 06:23:39;;;;;;;21.45;2.85;;;;;;;2.87;100.00;99586.63;5023005;28;20033;-73
2021/12/02 06:26:05;;;;;;;24.58;2.95;;;;;;;2.85;100.00;99589.50;5024893;28;20033;-71
2021/12/02 06:28:30;;;;;;;21.55;2.88;;;;;;;2.80;100.00;99587.53;5027249;28;20089;-71
2021/12/02 06:30:56;;;;;;;18.10;3.17;;;;;;;2.88;100.00;99586.41;5032884;28;20059;-70
2021/12/02 06:33:21;;;;;;;30.33;4.05;;;;;;;3.00;100.00;99584.56;5029108;28;20481;-73
2021/12/02 06:35:49;;;;;;;23.25;3.42;;;;;;;3.15;100.00;99601.91;5028338;28;20044;-75
2021/12/02 06:38:15;;;;;;;22.65;2.72;;;;;;;3.07;100.00;99635.63;5028250;28;20151;-76
2021/12/02 06:40:44;;;;;;;31.17;3.90;;;;;;;2.87;100.00;99643.06;5028653;28;20226;-75
2021/12/02 06:43:10;;;;;;;15.90;2.20;;;;;;;2.32;100.00;99661.63;5028576;28;20028;-75
2021/12/02 06:45:38;;;;;;;33.55;5.13;;;;;;;1.98;100.00;99660.34;5043820;28;20064;-75
2021/12/02 06:48:03;;;;;;;31.40;4.32;;;;;;;1.59;100.00;99645.63;5029484;28;20056;-77
2021/12/02 06:50:33;;;;;;;17.35;2.47;;;;;;;1.53;100.00;99635.91;5022956;28;20157;-76
2021/12/02 06:53:06;;;;;;;22.13;2.97;;;;;;;1.50;100.00;99641.63;5031394;28;20528;-76
2021/12/02 06:55:33;;;;;;;29.63;3.35;;;;;;;1.32;100.00;99619.41;5028629;28;20035;-75
2021/12/02 06:57:58;;;;;;;31.75;4.15;;;;;;;1.27;100.00;99621.88;5029570;28;20032;-75
2021/12/02 07:00:26;;;;;;;16.35;3.35;;;;;;;1.24;100.00;99632.88;5045909;28;20371;-76
2021/12/02 07:02:55;;;;;;;23.95;3.40;;;;;;;1.23;100.00;99630.44;5040332;28;21875;-76
2021/12/02 07:05:21;;;;;;;20.27;3.00;;;;;;;1.05;100.00;99639.06;5035620;28;20029;-76
2021/12/02 07:07:51;;;;;;;24.30;3.17;;;;;;;1.03;100.00;99643.75;5036908;28;20480;-77
2021/12/02 07:10:22;;;;;;;26.35;3.83;;;;;;;0.94;100.00;99637.13;5036094;28;20033;-77
2021/12/02 07:12:51;;;;;;;25.40;3.55;;;;;;;1.36;100.00;99625.88;5061466;28;20039;-76
2021/12/02 07:15:18;;;;;;;31.33;3.92;;;;;;;1.61;100.00;99630.34;5041176;28;20503;-75
2021/12/02 07:17:58;;;;;;;20.67;3.42;;;;;;;1.92;100.00;99643.50;5023116;28;20056;-76
2021/12/02 07:20:26;;;;;;;18.67;3.15;;;;;;;2.16;100.00;99655.06;5031161;28;20550;-77
2021/12/02 07:22:56;;;;;;;20.85;3.83;;;;;;;2.24;100.00;99651.34;5034430;28;20037;-76
2021/12/02 07:25:22;;;;;;;27.50;3.28;;;;;;;2.34;100.00;99659.56;5030648;28;20120;-76
2021/12/02 07:27:48;;;;;;;22.23;2.97;;;;;;;2.52;100.00;99664.03;5032855;28;20078;-75
2021/12/02 07:30:14;;;;;;;24.88;4.10;;;;;;;2.60;100.00;99647.06;5023213;28;20591;-78
2021/12/02 07:32:40;;;;;;;25.95;3.17;;;;;;;2.66;100.00;99659.41;5008499;28;20033;-79
2021/12/02 07:35:15;;;;;;;29.20;4.72;;;;;;;2.55;100.00;99689.28;5032467;28;20681;-76
2021/12/02 07:37:44;;;;;;;26.55;3.08;;;;;;;2.07;100.00;99700.56;5034210;28;20433;-78
2021/12/02 07:40:10;;;;;;;23.13;2.85;;;;;;;1.87;100.00;99696.25;5012825;28;20516;-78
2021/12/02 07:42:36;;;;;;;20.63;3.05;;;;;;;1.77;100.00;99700.41;5027495;28;20034;-78
2021/12/02 07:45:04;;;;;;;11.75;1.85;;;;;;;1.57;100.00;99701.38;5024483;28;20078;-75
2021/12/02 07:47:30;;;;;;;24.92;2.72;;;;;;;1.56;100.00;99705.03;5024462;28;20037;-78
2021/12/02 07:49:55;;;;;;;19.20;2.45;;;;;;;1.76;100.00;99704.88;5024259;28;20033;-78
2021/12/02 07:52:26;;;;;;;36.13;5.78;;;;;;;1.88;100.00;99708.47;5020052;28;20476;-78
2021/12/02 07:54:55;;;;;;;18.05;2.33;;;;;;;1.83;100.00;99705.63;5037897;28;20025;-78
2021/12/02 07:57:21;;;;;;;10.45;1.90;;;;;;;1.72;100.00;99687.84;5026086;28;20037;-78
2021/12/02 07:59:50;;;;;;;16.95;2.75;;;;;;;1.81;100.00;99697.13;5014189;28;20029;-78
2021/12/02 08:02:17;;;;;;;19.70;2.55;;;;;;;1.86;100.00;99689.31;5024618;28;20660;-78
2021/12/02 08:04:42;;;;;;;8.25;1.25;;;;;;;1.80;100.00;99678.81;5026244;28;20561;-78
2021/12/02 08:07:10;;;;;;;15.30;2.20;;;;;;;1.76;100.00;99686.38;5031487;28;20112;-78
2021/12/02 08:09:36;;;;;;;23.67;2.70;;;;;;;1.71;100.00;99688.03;5025563;28;20033;-78
2021/12/02 08:12:02;;;;;;;17.23;3.05;;;;;;;1.71;100.00;99706.53;5023152;28;20494;-78
2021/12/02 08:14:28;;;;;;;20.10;2.30;;;;;;;1.80;100.00;99716.66;5033076;28;20599;-77
2021/12/02 08:16:53;;;;;;;20.38;2.45;;;;;;;1.82;100.00;99714.59;5032469;28;20032;-78
2021/12/02 08:19:24;;;;;;;11.07;1.73;;;;;;;1.80;100.00;99716.66;5033476;28;20098;-78
2021/12/02 08:21:50;;;;;;;25.52;1.77;;;;;;;1.80;100.00;99727.25;5034745;28;20031;-78
2021/12/02 08:24:16;;;;;;;19.88;3.63;;;;;;;1.87;100.00;99725.34;5032060;28;20033;-78
2021/12/02 08:26:41;;;;;;;22.83;2.78;;;;;;;1.83;100.00;99718.84;5028152;28;20302;-79
2021/12/02 08:29:07;;;;;;;16.38;2.78;;;;;;;2.12;100.00;99724.53;5026472;28;20052;-78
2021/12/02 08:31:34;;;;;;;27.65;3.10;;;;;;;2.31;100.00;99739.41;5035322;28;20114;-78
2021/12/02 08:34:02;;;;;;;29.45;3.42;;;;;;;2.23;100.00;99747.63;5029068;28;20969;-78
2021/12/02 08:36:37;;;;;;;26.35;3.35;;;;;;;2.27;100.00;99743.50;5027369;28;20036;-78
2021/12/02 08:39:06;;;;;;;18.27;2.10;;;;;;;2.20;100.00;99734.84;5014476;28;20106;-71
2021/12/02 08:41:34;;;;;;;24.75;3.38;;;;;;;2.20;100.00;99740.16;5024483;28;20056;-71
2021/12/02 08:43:59;;;;;;;16.40;2.35;;;;;;;2.17;100.00;99743.22;5028789;28;20110;-71
2021/12/02 08:46:27;;;;;;;20.83;2.60;;;;;;;2.13;100.00;99736.75;5031038;28;20033;-71
2021/12/02 08:48:53;;;;;;;26.23;2.90;;;;;;;2.15;100.00;99743.44;5020040;28;20064;-69
2021/12/02 08:51:23;;;;;;;16.73;2.97;;;;;;;2.39;100.00;99752.38;5026461;28;20051;-70
2021/12/02 08:53:49;;;;;;;29.27;3.70;;;;;;;2.61;100.00;99742.19;5028295;28;20029;-72
2021/12/02 08:56:15;;;;;;;26.17;3.58;;;;;;;2.79;100.00;99752.78;5028690;28;20070;-72
2021/12/02 08:58:40;;;;;;;26.45;3.78;;;;;;;3.01;100.00;99753.16;5026067;28;20563;-72
2021/12/02 09:01:05;;;;;;;30.90;4.45;;;;;;;3.30;100.00;99748.91;5027829;28;20069;-71
2021/12/02 09:03:36;;;;;;;45.22;6.00;;;;;;;3.49;100.00;99770.06;5018961;28;20061;-71
2021/12/02 09:06:02;;;;;;;19.88;2.88;;;;;;;3.36;100.00;99792.28;5012844;28;20033;-72
2021/12/02 09:08:30;;;;;;;23.17;3.10;;;;;;;3.16;100.00;99816.34;5023934;28;20040;-71
2021/12/02 09:10:57;;;;;;;23.42;2.92;;;;;;;2.89;100.00;99830.94;5027733;28;20475;-72
2021/12/02 09:13:23;;;;;;;15.20;2.00;;;;;;;2.57;100.00;99849.56;5023257;28;20083;-71
2021/12/02 09:15:48;;;;;;;15.43;1.77;;;;;;;2.26;100.00;99829.22;5024023;28;20040;-69
2021/12/02 09:18:14;;;;;;;15.90;2.20;;;;;;;2.04;100.00;99804.19;5023295;28;20171;-70
2021/12/02 09:20:41;;;;;;;22.52;2.92;;;;;;;1.94;100.00;99794.84;5025964;28;20037;-69
2021/12/02 09:23:09;;;;;;;13.75;1.83;;;;;;;2.01;100.00;99823.91;5027217;28;20048;-70
2021/12/02 09:25:34;;;;;;;10.30;2.22;;;;;;;1.97;100.00;99833.31;5022483;28;20096;-70
2021/12/02 09:28:04;;;;;;;7.50;1.38;;;;;;;1.92;100.00;99831.31;5022720;28;20029;-70
2021/12/02 09:30:29;;;;;;;9.10;1.55;;;;;;;1.82;100.00;99830.97;5021964;28;20060;-71
2021/12/02 09:32:55;;;;;;;7.88;1.35;;;;;;;1.80;100.00;99842.78;5027467;28;20033;-70
2021/12/02 09:35:23;;;;;;;7.60;1.85;;;;;;;1.71;100.00;99834.28;5022559;28;20041;-71
2021/12/02 09:37:49;;;;;;;7.07;1.35;;;;;;;1.58;100.00;99829.06;5022478;28;20776;-71
2021/12/02 09:40:18;;;;;;;6.25;0.98;;;;;;;1.61;100.00;99832.09;5022316;28;20024;-71
2021/12/02 09:42:44;;;;;;;5.18;1.10;;;;;;;1.63;100.00;99847.75;5011318;28;20204;-71
2021/12/02 09:45:10;;;;;;;3.80;0.80;;;;;;;1.64;100.00;99875.81;5026876;28;20036;-70
2021/12/02 09:47:40;;;;;;;4.82;1.00;;;;;;;1.53;100.00;99879.09;5023338;28;20388;-71
2021/12/02 09:50:12;;;;;;;4.85;0.98;;;;;;;1.53;100.00;99905.53;5021241;28;20058;-71
2021/12/02 09:52:40;;;;;;;11.48;1.23;;;;;;;1.47;100.00;99891.34;5022758;28;20045;-71
2021/12/02 09:55:35;;;;;;;4.90;0.90;;;;;;;1.33;100.00;99872.06;5038969;28;20163;-72
2021/12/02 09:58:00;;;;;;;5.20;1.23;;;;;;;1.31;100.00;99884.69;5023726;28;20036;-71
2021/12/02 10:00:38;;;;;;;6.85;1.20;;;;;;;1.27;100.00;99875.53;5026056;28;20033;-72
2021/12/02 10:03:18;;;;;;;6.10;1.55;;;;;;;1.25;100.00;99885.50;5022488;28;20189;-71
2021/12/02 10:05:56;;;;;;;6.90;1.27;;;;;;;1.28;100.00;99887.72;5025779;28;20114;-72
2021/12/02 10:08:28;;;;;;;8.63;1.42;;;;;;;1.21;100.00;99889.56;5022705;28;20303;-72
2021/12/02 10:11:01;;;;;;;8.48;3.85;;;;;;;1.29;100.00;99909.66;4999953;28;20036;-71
2021/12/02 10:13:35;;;;;;;12.20;3.60;;;;;;;1.21;100.00;99913.34;5018910;28;20040;-71
2021/12/02 10:16:22;;;;;;;15.15;3.97;;;;;;;1.23;100.00;99924.53;5021840;28;20333;-71
2021/12/02 10:19:09;;;;;;;6.97;2.10;;;;;;;1.24;100.00;99930.63;5026299;28;20029;-71
2021/12/02 10:21:44;;;;;;;13.60;2.33;;;;;;;1.25;100.00;99938.34;5022536;28;20086;-70
2021/12/02 10:24:12;;;;;;;9.73;1.83;;;;;;;1.30;100.00;99938.56;5023448;28;20052;-71
2021/12/02 10:26:55;;;;;;;7.07;1.35;;;;;;;1.43;100.00;99947.47;5027563;28;20406;-72
2021/12/02 10:29:23;;;;;;;5.15;1.02;;;;;;;1.48;100.00;99945.00;4999804;28;20060;-71
2021/12/02 10:32:11;;;;;;;7.25;1.65;;;;;;;1.51;100.00;99934.81;5000798;28;20041;-71
2021/12/02 10:34:52;;;;;;;6.00;1.25;;;;;;;1.58;100.00;99929.53;5023625;28;20116;-71
2021/12/02 10:37:21;;;;;;;9.77;1.00;;;;;;;1.59;100.00;99915.28;5022212;28;20051;-72
2021/12/02 10:39:57;;;;;;;7.03;1.00;;;;;;;1.75;100.00;99920.09;5026683;28;20040;-71
2021/12/02 10:42:23;;;;;;;5.30;0.98;;;;;;;1.78;100.00;99924.97;5021307;28;20128;-72
2021/12/02 10:44:49;;;;;;;4.15;1.02;;;;;;;1.85;100.00;99928.38;5019994;28;20549;-71
2021/12/02 10:47:19;;;;;;;6.38;1.58;;;;;;;1.83;100.00;99933.09;5010948;28;20325;-72
2021/12/02 10:49:48;;;;;;;6.88;1.50;;;;;;;1.84;100.00;99932.06;5021903;28;20434;-71
2021/12/02 10:52:25;;;;;;;8.73;1.20;;;;;;;1.69;100.00;99927.03;4994922;28;20543;-72
2021/12/02 10:55:00;;;;;;;6.82;1.75;;;;;;;1.77;100.00;99949.78;5010042;28;20373;-72
2021/12/02 10:57:27;;;;;;;6.03;1.38;;;;;;;1.74;100.00;99954.69;5021300;28;20067;-72
2021/12/02 10:59:57;;;;;;;7.30;1.30;;;;;;;1.65;100.00;99954.91;5023232;28;20041;-71
2021/12/02 11:02:34;;;;;;;6.38;1.50;;;;;;;1.65;100.00;99951.47;5024655;28;20036;-72
2021/12/02 11:05:28;;;;;;;6.78;1.40;;;;;;;1.63;100.00;99950.88;5024009;28;20357;-71
2021/12/02 11:07:57;;;;;;;5.20;1.38;;;;;;;1.64;100.00;99955.94;5026035;28;20512;-72
2021/12/02 11:10:24;;;;;;;3.45;1.20;;;;;;;1.65;100.00;99962.03;5023738;28;20041;-72
2021/12/02 11:12:54;;;;;;;6.72;0.93;;;;;;;1.67;100.00;99944.13;5027130;28;20741;-72
2021/12/02 11:15:22;;;;;;;3.58;0.90;;;;;;;1.69;100.00;99942.09;5027310;28;20067;-72
2021/12/02 11:17:47;;;;;;;8.05;2.50;;;;;;;1.78;100.00;99951.41;5024152;28;20043;-72
2021/12/02 11:20:23;;;;;;;7.07;2.40;;;;;;;1.82;100.00;99951.81;5039734;28;20041;-70
2021/12/02 11:22:53;;;;;;;20.85;3.53;;;;;;;1.84;100.00;99947.94;5027120;28;20051;-70
2021/12/02 11:25:19;;;;;;;26.23;3.90;;;;;;;1.96;100.00;99966.63;5026190;28;20037;-72
2021/12/02 11:27:50;;;;;;;30.58;4.55;;;;;;;2.02;100.00;99967.59;5026543;28;20032;-72
2021/12/02 11:30:18;;;;;;;41.20;4.93;;;;;;;2.09;100.00;99968.38;5022408;28;20564;-71
2021/12/02 11:32:47;;;;;;;27.85;4.43;;;;;;;2.21;100.00;99964.06;5039611;28;20759;-72
2021/12/02 11:35:19;;;;;;;38.33;4.78;;;;;;;2.35;100.00;99957.63;5022565;28;20493;-72
2021/12/02 11:37:47;;;;;;;;;;;;;;;2.60;100.00;99967.47;5038936;28;20951;-72
2021/12/02 11:40:26;;;;;;;35.60;5.93;;;;;;;3.09;100.00;99964.88;5012583;28;19947;-72
2021/12/02 11:42:52;;;;;;;30.73;5.63;;;;;;;3.42;100.00;99979.66;5013235;28;20513;-72
2021/12/02 11:45:22;;;;;;;37.28;4.40;;;;;;;3.53;100.00;99975.44;5019741;28;20037;-71
2021/12/02 11:47:48;;;;;;;24.42;4.05;;;;;;;3.60;100.00;100000.06;5022486;28;20512;-71
2021/12/02 11:50:18;;;;;;;21.92;3.10;;;;;;;3.41;100.00;99985.97;5025694;28;20116;-72
2021/12/02 11:52:44;;;;;;;19.35;3.30;;;;;;;3.37;100.00;99990.91;5022557;28;20028;-72